sensor_id;sensor_type;location;lat;lon;timestamp;temperature;humidity
17795;DHT22;9021;50.882;4.326;2023-07-22T00:02:24;17.80;99.90
17795;DHT22;9021;50.882;4.326;2023-07-22T00:04:50;17.80;99.90
17795;DHT22;9021;50.882;4.326;2023-07-22T00:07:15;17.80;99.90
17795;DHT22;9021;50.882;4.326;2023-07-22T00:09:41;17.90;99.90
17795;DHT22;9021;50.882;4.326;2023-07-22T00:12:07;18.00;99.90
17795;DHT22;9021;50.882;4.326;2023-07-22T00:14:33;18.00;99.90
17795;DHT22;9021;50.882;4.326;2023-07-22T00:16:58;18.10;99.70
17795;DHT22;9021;50.882;4.326;2023-07-22T00:19:24;18.10;99.60
17795;DHT22;9021;50.882;4.326;2023-07-22T00:21:49;18.10;99.60
17795;DHT22;9021;50.882;4.326;2023-07-22T00:24:15;17.90;99.90
17795;DHT22;9021;50.882;4.326;2023-07-22T00:26:41;17.80;99.90
17795;DHT22;9021;50.882;4.326;2023-07-22T00:29:07;17.90;99.90
17795;DHT22;9021;50.882;4.326;2023-07-22T00:31:33;18.10;99.80
17795;DHT22;9021;50.882;4.326;2023-07-22T00:33:58;18.10;99.60
17795;DHT22;9021;50.882;4.326;2023-07-22T00:36:25;18.10;99.50
17795;DHT22;9021;50.882;4.326;2023-07-22T00:38:50;18.20;99.60
17795;DHT22;9021;50.882;4.326;2023-07-22T00:41:20;18.10;99.60
17795;DHT22;9021;50.882;4.326;2023-07-22T00:43:46;18.10;99.70
17795;DHT22;9021;50.882;4.326;2023-07-22T00:46:11;18.10;99.60
17795;DHT22;9021;50.882;4.326;2023-07-22T00:48:37;18.00;99.70
17795;DHT22;9021;50.882;4.326;2023-07-22T00:51:03;18.00;99.80
17795;DHT22;9021;50.882;4.326;2023-07-22T00:53:28;18.10;99.70
17795;DHT22;9021;50.882;4.326;2023-07-22T00:55:54;18.00;99.80
17795;DHT22;9021;50.882;4.326;2023-07-22T00:58:20;18.00;99.90
17795;DHT22;9021;50.882;4.326;2023-07-22T01:00:46;18.00;99.90
17795;DHT22;9021;50.882;4.326;2023-07-22T01:03:11;18.00;99.90
17795;DHT22;9021;50.882;4.326;2023-07-22T01:05:38;18.00;99.90
17795;DHT22;9021;50.882;4.326;2023-07-22T01:08:04;18.00;99.90
17795;DHT22;9021;50.882;4.326;2023-07-22T01:10:30;18.00;99.80
17795;DHT22;9021;50.882;4.326;2023-07-22T01:12:56;18.00;99.90
17795;DHT22;9021;50.882;4.326;2023-07-22T01:15:21;18.00;99.80
17795;DHT22;9021;50.882;4.326;2023-07-22T01:17:47;17.90;99.90
17795;DHT22;9021;50.882;4.326;2023-07-22T01:20:13;17.90;99.90
17795;DHT22;9021;50.882;4.326;2023-07-22T01:22:39;17.80;99.90
17795;DHT22;9021;50.882;4.326;2023-07-22T01:25:05;17.80;99.90
17795;DHT22;9021;50.882;4.326;2023-07-22T01:27:32;17.70;99.90
17795;DHT22;9021;50.882;4.326;2023-07-22T01:29:57;17.60;99.90
17795;DHT22;9021;50.882;4.326;2023-07-22T01:32:23;17.60;99.90
17795;DHT22;9021;50.882;4.326;2023-07-22T01:34:48;17.60;99.90
17795;DHT22;9021;50.882;4.326;2023-07-22T01:37:14;17.50;99.90
17795;DHT22;9021;50.882;4.326;2023-07-22T01:39:39;17.30;99.90
17795;DHT22;9021;50.882;4.326;2023-07-22T01:42:05;17.20;99.90
17795;DHT22;9021;50.882;4.326;2023-07-22T01:44:30;17.20;99.90
17795;DHT22;9021;50.882;4.326;2023-07-22T01:46:56;17.20;99.90
17795;DHT22;9021;50.882;4.326;2023-07-22T01:49:22;17.10;99.90
17795;DHT22;9021;50.882;4.326;2023-07-22T01:51:49;17.00;99.90
17795;DHT22;9021;50.882;4.326;2023-07-22T01:54:15;17.00;99.90
17795;DHT22;9021;50.882;4.326;2023-07-22T01:56:40;17.00;99.90
17795;DHT22;9021;50.882;4.326;2023-07-22T01:59:06;16.90;99.90
17795;DHT22;9021;50.882;4.326;2023-07-22T02:01:32;16.90;99.90
17795;DHT22;9021;50.882;4.326;2023-07-22T02:03:57;16.90;99.90
17795;DHT22;9021;50.882;4.326;2023-07-22T02:06:23;16.90;99.90
17795;DHT22;9021;50.882;4.326;2023-07-22T02:08:48;16.90;99.90
17795;DHT22;9021;50.882;4.326;2023-07-22T02:11:14;16.90;99.90
17795;DHT22;9021;50.882;4.326;2023-07-22T02:13:39;16.90;99.90
17795;DHT22;9021;50.882;4.326;2023-07-22T02:16:05;16.90;99.90
17795;DHT22;9021;50.882;4.326;2023-07-22T02:18:30;16.90;99.90
17795;DHT22;9021;50.882;4.326;2023-07-22T02:20:56;16.70;99.90
17795;DHT22;9021;50.882;4.326;2023-07-22T02:23:22;16.80;99.90
17795;DHT22;9021;50.882;4.326;2023-07-22T02:25:49;16.80;99.90
17795;DHT22;9021;50.882;4.326;2023-07-22T02:28:14;16.70;99.90
17795;DHT22;9021;50.882;4.326;2023-07-22T02:30:41;16.60;99.90
17795;DHT22;9021;50.882;4.326;2023-07-22T02:33:07;16.50;99.90
17795;DHT22;9021;50.882;4.326;2023-07-22T02:35:32;16.40;99.90
17795;DHT22;9021;50.882;4.326;2023-07-22T02:37:58;16.30;99.90
17795;DHT22;9021;50.882;4.326;2023-07-22T02:40:24;16.40;99.90
17795;DHT22;9021;50.882;4.326;2023-07-22T02:42:49;16.50;99.90
17795;DHT22;9021;50.882;4.326;2023-07-22T02:45:15;16.50;99.90
17795;DHT22;9021;50.882;4.326;2023-07-22T02:47:40;16.40;99.90
17795;DHT22;9021;50.882;4.326;2023-07-22T02:50:06;16.50;99.90
17795;DHT22;9021;50.882;4.326;2023-07-22T02:52:32;16.50;99.90
17795;DHT22;9021;50.882;4.326;2023-07-22T02:55:04;16.50;99.90
17795;DHT22;9021;50.882;4.326;2023-07-22T02:57:30;16.50;99.90
17795;DHT22;9021;50.882;4.326;2023-07-22T02:59:56;16.40;99.90
17795;DHT22;9021;50.882;4.326;2023-07-22T03:02:21;16.50;99.90
17795;DHT22;9021;50.882;4.326;2023-07-22T03:04:47;16.50;99.90
17795;DHT22;9021;50.882;4.326;2023-07-22T03:07:12;16.50;99.90
17795;DHT22;9021;50.882;4.326;2023-07-22T03:09:38;16.50;99.90
17795;DHT22;9021;50.882;4.326;2023-07-22T03:12:03;16.50;99.90
17795;DHT22;9021;50.882;4.326;2023-07-22T03:14:29;16.40;99.90
17795;DHT22;9021;50.882;4.326;2023-07-22T03:16:54;16.40;99.90
17795;DHT22;9021;50.882;4.326;2023-07-22T03:19:20;16.40;99.90
17795;DHT22;9021;50.882;4.326;2023-07-22T03:21:46;16.40;99.90
17795;DHT22;9021;50.882;4.326;2023-07-22T03:24:11;16.40;99.90
17795;DHT22;9021;50.882;4.326;2023-07-22T03:26:37;16.30;99.90
17795;DHT22;9021;50.882;4.326;2023-07-22T03:29:02;16.30;99.90
17795;DHT22;9021;50.882;4.326;2023-07-22T03:31:30;16.20;99.90
17795;DHT22;9021;50.882;4.326;2023-07-22T03:33:55;16.20;99.90
17795;DHT22;9021;50.882;4.326;2023-07-22T03:36:21;16.20;99.90
17795;DHT22;9021;50.882;4.326;2023-07-22T03:38:46;16.30;99.90
17795;DHT22;9021;50.882;4.326;2023-07-22T03:41:12;16.60;99.90
17795;DHT22;9021;50.882;4.326;2023-07-22T03:43:37;16.50;99.90
17795;DHT22;9021;50.882;4.326;2023-07-22T03:46:03;16.30;99.90
17795;DHT22;9021;50.882;4.326;2023-07-22T03:48:28;16.30;99.90
17795;DHT22;9021;50.882;4.326;2023-07-22T03:50:54;16.40;99.90
17795;DHT22;9021;50.882;4.326;2023-07-22T03:53:19;16.40;99.90
17795;DHT22;9021;50.882;4.326;2023-07-22T03:55:45;16.40;99.90
17795;DHT22;9021;50.882;4.326;2023-07-22T03:58:10;16.40;99.90
17795;DHT22;9021;50.882;4.326;2023-07-22T04:00:37;16.20;99.90
17795;DHT22;9021;50.882;4.326;2023-07-22T04:03:03;19.60;99.90
17795;DHT22;9021;50.882;4.326;2023-07-22T04:05:28;16.20;99.90
17795;DHT22;9021;50.882;4.326;2023-07-22T04:07:54;12.90;99.90
17795;DHT22;9021;50.882;4.326;2023-07-22T04:10:19;16.30;99.90
17795;DHT22;9021;50.882;4.326;2023-07-22T04:12:45;16.20;99.90
17795;DHT22;9021;50.882;4.326;2023-07-22T04:15:13;16.00;99.90
17795;DHT22;9021;50.882;4.326;2023-07-22T04:17:40;16.00;99.90
17795;DHT22;9021;50.882;4.326;2023-07-22T04:20:06;16.00;99.90
17795;DHT22;9021;50.882;4.326;2023-07-22T04:22:33;16.10;99.90
17795;DHT22;9021;50.882;4.326;2023-07-22T04:24:59;16.20;99.90
17795;DHT22;9021;50.882;4.326;2023-07-22T04:27:26;16.20;99.90
17795;DHT22;9021;50.882;4.326;2023-07-22T04:29:51;16.20;99.90
17795;DHT22;9021;50.882;4.326;2023-07-22T04:32:17;16.20;99.90
17795;DHT22;9021;50.882;4.326;2023-07-22T04:34:42;16.20;99.90
17795;DHT22;9021;50.882;4.326;2023-07-22T04:37:08;16.20;99.90
17795;DHT22;9021;50.882;4.326;2023-07-22T04:39:33;16.20;99.90
17795;DHT22;9021;50.882;4.326;2023-07-22T04:41:59;16.00;99.90
17795;DHT22;9021;50.882;4.326;2023-07-22T04:44:25;16.20;99.90
17795;DHT22;9021;50.882;4.326;2023-07-22T04:46:50;16.20;99.90
17795;DHT22;9021;50.882;4.326;2023-07-22T04:49:16;16.30;99.90
17795;DHT22;9021;50.882;4.326;2023-07-22T04:51:44;16.30;99.90
17795;DHT22;9021;50.882;4.326;2023-07-22T04:54:09;16.30;99.90
17795;DHT22;9021;50.882;4.326;2023-07-22T04:56:35;16.20;99.90
17795;DHT22;9021;50.882;4.326;2023-07-22T04:59:00;16.30;99.90
17795;DHT22;9021;50.882;4.326;2023-07-22T05:01:26;16.30;99.90
17795;DHT22;9021;50.882;4.326;2023-07-22T05:03:51;16.20;99.90
17795;DHT22;9021;50.882;4.326;2023-07-22T05:06:20;16.20;99.90
17795;DHT22;9021;50.882;4.326;2023-07-22T05:08:46;16.10;99.90
17795;DHT22;9021;50.882;4.326;2023-07-22T05:11:11;15.90;99.90
17795;DHT22;9021;50.882;4.326;2023-07-22T05:13:36;15.90;99.90
17795;DHT22;9021;50.882;4.326;2023-07-22T05:16:02;15.90;99.90
17795;DHT22;9021;50.882;4.326;2023-07-22T05:18:28;16.10;99.90
17795;DHT22;9021;50.882;4.326;2023-07-22T05:20:53;16.10;99.90
17795;DHT22;9021;50.882;4.326;2023-07-22T05:23:18;16.00;99.90
17795;DHT22;9021;50.882;4.326;2023-07-22T05:25:50;16.10;99.90
17795;DHT22;9021;50.882;4.326;2023-07-22T05:28:15;16.10;99.90
17795;DHT22;9021;50.882;4.326;2023-07-22T05:30:41;16.10;99.90
17795;DHT22;9021;50.882;4.326;2023-07-22T05:33:06;16.00;99.90
17795;DHT22;9021;50.882;4.326;2023-07-22T05:35:31;16.00;99.90
17795;DHT22;9021;50.882;4.326;2023-07-22T05:37:57;16.00;99.90
17795;DHT22;9021;50.882;4.326;2023-07-22T05:40:22;16.10;99.90
17795;DHT22;9021;50.882;4.326;2023-07-22T05:42:48;16.10;99.90
17795;DHT22;9021;50.882;4.326;2023-07-22T05:45:13;16.20;99.90
17795;DHT22;9021;50.882;4.326;2023-07-22T05:47:40;16.40;99.90
17795;DHT22;9021;50.882;4.326;2023-07-22T05:50:06;16.50;99.90
17795;DHT22;9021;50.882;4.326;2023-07-22T05:52:32;16.70;99.90
17795;DHT22;9021;50.882;4.326;2023-07-22T05:54:57;16.90;99.90
17795;DHT22;9021;50.882;4.326;2023-07-22T05:57:23;17.00;99.90
17795;DHT22;9021;50.882;4.326;2023-07-22T05:59:48;17.00;99.90
17795;DHT22;9021;50.882;4.326;2023-07-22T06:02:14;17.10;99.90
17795;DHT22;9021;50.882;4.326;2023-07-22T06:04:39;17.20;99.90
17795;DHT22;9021;50.882;4.326;2023-07-22T06:07:05;17.20;99.90
17795;DHT22;9021;50.882;4.326;2023-07-22T06:09:30;17.20;99.90
17795;DHT22;9021;50.882;4.326;2023-07-22T06:11:56;17.50;99.90
17795;DHT22;9021;50.882;4.326;2023-07-22T06:14:24;17.50;99.90
17795;DHT22;9021;50.882;4.326;2023-07-22T06:16:49;17.40;99.90
17795;DHT22;9021;50.882;4.326;2023-07-22T06:19:15;17.50;99.90
17795;DHT22;9021;50.882;4.326;2023-07-22T06:21:40;17.70;99.90
17795;DHT22;9021;50.882;4.326;2023-07-22T06:24:06;17.70;99.90
17795;DHT22;9021;50.882;4.326;2023-07-22T06:26:31;17.70;99.90
17795;DHT22;9021;50.882;4.326;2023-07-22T06:28:57;17.70;99.90
17795;DHT22;9021;50.882;4.326;2023-07-22T06:31:22;17.70;99.90
17795;DHT22;9021;50.882;4.326;2023-07-22T06:33:48;17.70;99.90
17795;DHT22;9021;50.882;4.326;2023-07-22T06:36:13;17.60;99.90
17795;DHT22;9021;50.882;4.326;2023-07-22T06:38:39;17.60;99.90
17795;DHT22;9021;50.882;4.326;2023-07-22T06:41:04;17.60;99.90
17795;DHT22;9021;50.882;4.326;2023-07-22T06:43:30;17.80;99.90
17795;DHT22;9021;50.882;4.326;2023-07-22T06:45:55;17.80;99.90
17795;DHT22;9021;50.882;4.326;2023-07-22T06:48:21;17.80;99.90
17795;DHT22;9021;50.882;4.326;2023-07-22T06:50:47;17.70;99.90
17795;DHT22;9021;50.882;4.326;2023-07-22T06:53:12;17.70;99.90
17795;DHT22;9021;50.882;4.326;2023-07-22T06:55:40;17.80;99.90
17795;DHT22;9021;50.882;4.326;2023-07-22T06:58:05;17.90;99.90
17795;DHT22;9021;50.882;4.326;2023-07-22T07:00:31;18.00;99.90
17795;DHT22;9021;50.882;4.326;2023-07-22T07:02:56;18.10;99.90
17795;DHT22;9021;50.882;4.326;2023-07-22T07:05:22;18.00;99.90
17795;DHT22;9021;50.882;4.326;2023-07-22T07:07:48;18.00;99.90
17795;DHT22;9021;50.882;4.326;2023-07-22T07:10:14;17.90;99.90
17795;DHT22;9021;50.882;4.326;2023-07-22T07:12:45;18.00;99.90
17795;DHT22;9021;50.882;4.326;2023-07-22T07:15:10;18.40;99.90
17795;DHT22;9021;50.882;4.326;2023-07-22T07:17:36;18.90;99.90
17795;DHT22;9021;50.882;4.326;2023-07-22T07:20:01;19.40;99.90
17795;DHT22;9021;50.882;4.326;2023-07-22T07:22:27;20.00;99.90
17795;DHT22;9021;50.882;4.326;2023-07-22T07:24:52;20.50;99.90
17795;DHT22;9021;50.882;4.326;2023-07-22T07:27:18;20.60;99.90
17795;DHT22;9021;50.882;4.326;2023-07-22T07:29:43;20.90;99.90
17795;DHT22;9021;50.882;4.326;2023-07-22T07:32:08;21.00;99.90
17795;DHT22;9021;50.882;4.326;2023-07-22T07:34:34;20.90;99.90
17795;DHT22;9021;50.882;4.326;2023-07-22T07:36:59;20.60;99.90
17795;DHT22;9021;50.882;4.326;2023-07-22T07:39:25;20.30;99.90
17795;DHT22;9021;50.882;4.326;2023-07-22T07:41:50;19.80;99.90
17795;DHT22;9021;50.882;4.326;2023-07-22T07:44:16;19.70;99.90
17795;DHT22;9021;50.882;4.326;2023-07-22T07:46:41;19.50;99.90
17795;DHT22;9021;50.882;4.326;2023-07-22T07:49:07;19.30;99.90
17795;DHT22;9021;50.882;4.326;2023-07-22T07:51:33;19.30;99.90
17795;DHT22;9021;50.882;4.326;2023-07-22T07:53:58;19.10;99.90
17795;DHT22;9021;50.882;4.326;2023-07-22T07:56:24;19.00;99.90
17795;DHT22;9021;50.882;4.326;2023-07-22T07:58:51;19.10;99.90
17795;DHT22;9021;50.882;4.326;2023-07-22T08:01:17;19.20;99.90
17795;DHT22;9021;50.882;4.326;2023-07-22T08:03:42;19.20;99.90
17795;DHT22;9021;50.882;4.326;2023-07-22T08:06:09;19.30;99.90
17795;DHT22;9021;50.882;4.326;2023-07-22T08:08:35;19.40;99.90
17795;DHT22;9021;50.882;4.326;2023-07-22T08:11:04;19.50;99.90
17795;DHT22;9021;50.882;4.326;2023-07-22T08:13:30;19.60;99.90
17795;DHT22;9021;50.882;4.326;2023-07-22T08:15:57;19.80;99.90
17795;DHT22;9021;50.882;4.326;2023-07-22T08:18:23;19.80;99.90
17795;DHT22;9021;50.882;4.326;2023-07-22T08:20:49;20.00;99.90
17795;DHT22;9021;50.882;4.326;2023-07-22T08:23:15;20.10;99.90
17795;DHT22;9021;50.882;4.326;2023-07-22T08:25:40;20.20;99.90
17795;DHT22;9021;50.882;4.326;2023-07-22T08:28:06;20.40;99.90
17795;DHT22;9021;50.882;4.326;2023-07-22T08:30:31;20.40;99.90
17795;DHT22;9021;50.882;4.326;2023-07-22T08:32:57;20.30;99.90
17795;DHT22;9021;50.882;4.326;2023-07-22T08:35:22;20.20;99.90
17795;DHT22;9021;50.882;4.326;2023-07-22T08:37:48;20.20;99.90
17795;DHT22;9021;50.882;4.326;2023-07-22T08:40:13;20.20;99.90
17795;DHT22;9021;50.882;4.326;2023-07-22T08:42:40;20.30;99.90
17795;DHT22;9021;50.882;4.326;2023-07-22T08:45:06;20.30;99.90
17795;DHT22;9021;50.882;4.326;2023-07-22T08:47:34;20.30;99.90
17795;DHT22;9021;50.882;4.326;2023-07-22T08:50:01;20.50;99.90
17795;DHT22;9021;50.882;4.326;2023-07-22T08:52:26;20.80;99.90
17795;DHT22;9021;50.882;4.326;2023-07-22T08:54:52;21.00;99.90
17795;DHT22;9021;50.882;4.326;2023-07-22T08:57:18;21.00;99.90
17795;DHT22;9021;50.882;4.326;2023-07-22T08:59:44;21.50;99.90
17795;DHT22;9021;50.882;4.326;2023-07-22T09:02:10;21.90;99.90
17795;DHT22;9021;50.882;4.326;2023-07-22T09:04:37;22.80;99.90
17795;DHT22;9021;50.882;4.326;2023-07-22T09:07:02;23.80;99.90
17795;DHT22;9021;50.882;4.326;2023-07-22T09:09:28;24.70;98.30
17795;DHT22;9021;50.882;4.326;2023-07-22T09:11:53;25.10;97.10
17795;DHT22;9021;50.882;4.326;2023-07-22T09:14:20;25.30;96.10
17795;DHT22;9021;50.882;4.326;2023-07-22T09:16:46;25.90;95.30
17795;DHT22;9021;50.882;4.326;2023-07-22T09:19:11;26.10;94.60
17795;DHT22;9021;50.882;4.326;2023-07-22T09:21:37;25.70;94.50
17795;DHT22;9021;50.882;4.326;2023-07-22T09:24:13;26.00;94.10
17795;DHT22;9021;50.882;4.326;2023-07-22T09:26:44;26.00;93.40
17795;DHT22;9021;50.882;4.326;2023-07-22T09:29:10;26.30;92.80
17795;DHT22;9021;50.882;4.326;2023-07-22T09:31:45;26.80;92.30
17795;DHT22;9021;50.882;4.326;2023-07-22T09:34:13;26.80;91.30
17795;DHT22;9021;50.882;4.326;2023-07-22T09:39:16;26.70;91.00
17795;DHT22;9021;50.882;4.326;2023-07-22T09:41:42;26.80;90.50
17795;DHT22;9021;50.882;4.326;2023-07-22T09:44:09;26.80;90.40
17795;DHT22;9021;50.882;4.326;2023-07-22T09:46:34;27.20;89.80
17795;DHT22;9021;50.882;4.326;2023-07-22T09:49:03;27.10;89.60
17795;DHT22;9021;50.882;4.326;2023-07-22T09:51:33;26.60;89.40
17795;DHT22;9021;50.882;4.326;2023-07-22T09:54:00;26.20;89.90
17795;DHT22;9021;50.882;4.326;2023-07-22T09:56:26;26.10;90.10
17795;DHT22;9021;50.882;4.326;2023-07-22T09:58:51;25.80;89.80
17795;DHT22;9021;50.882;4.326;2023-07-22T10:01:22;25.20;90.10
17795;DHT22;9021;50.882;4.326;2023-07-22T10:03:49;25.00;90.10
17795;DHT22;9021;50.882;4.326;2023-07-22T10:06:20;24.80;90.10
17795;DHT22;9021;50.882;4.326;2023-07-22T10:08:46;25.00;90.10
17795;DHT22;9021;50.882;4.326;2023-07-22T10:11:13;24.70;89.90
17795;DHT22;9021;50.882;4.326;2023-07-22T10:13:39;24.70;89.80
17795;DHT22;9021;50.882;4.326;2023-07-22T10:16:05;24.50;89.90
17795;DHT22;9021;50.882;4.326;2023-07-22T10:18:31;25.00;88.10
17795;DHT22;9021;50.882;4.326;2023-07-22T10:20:57;24.90;87.10
17795;DHT22;9021;50.882;4.326;2023-07-22T10:23:23;24.90;85.80
17795;DHT22;9021;50.882;4.326;2023-07-22T10:25:50;25.20;85.10
17795;DHT22;9021;50.882;4.326;2023-07-22T10:28:16;25.80;84.00
17795;DHT22;9021;50.882;4.326;2023-07-22T10:30:42;26.70;83.60
17795;DHT22;9021;50.882;4.326;2023-07-22T10:33:08;27.70;82.30
17795;DHT22;9021;50.882;4.326;2023-07-22T10:35:34;28.40;81.20
17795;DHT22;9021;50.882;4.326;2023-07-22T10:38:11;28.90;79.60
17795;DHT22;9021;50.882;4.326;2023-07-22T10:40:47;29.20;78.80
17795;DHT22;9021;50.882;4.326;2023-07-22T10:43:18;29.50;78.10
17795;DHT22;9021;50.882;4.326;2023-07-22T10:45:54;30.10;78.00
17795;DHT22;9021;50.882;4.326;2023-07-22T10:48:20;29.30;77.00
17795;DHT22;9021;50.882;4.326;2023-07-22T10:50:50;28.00;79.10
17795;DHT22;9021;50.882;4.326;2023-07-22T10:59:12;26.20;82.00
17795;DHT22;9021;50.882;4.326;2023-07-22T11:06:36;26.40;82.50
17795;DHT22;9021;50.882;4.326;2023-07-22T11:09:02;26.90;82.40
17795;DHT22;9021;50.882;4.326;2023-07-22T11:11:35;27.60;80.50
17795;DHT22;9021;50.882;4.326;2023-07-22T11:14:15;27.70;80.80
17795;DHT22;9021;50.882;4.326;2023-07-22T11:16:44;27.90;80.70
17795;DHT22;9021;50.882;4.326;2023-07-22T11:19:10;27.00;79.60
17795;DHT22;9021;50.882;4.326;2023-07-22T11:21:36;26.00;81.40
17795;DHT22;9021;50.882;4.326;2023-07-22T11:24:05;25.90;82.60
17795;DHT22;9021;50.882;4.326;2023-07-22T11:26:31;26.80;81.20
17795;DHT22;9021;50.882;4.326;2023-07-22T11:28:57;27.40;80.20
17795;DHT22;9021;50.882;4.326;2023-07-22T11:31:29;27.10;80.90
17795;DHT22;9021;50.882;4.326;2023-07-22T11:33:55;26.70;81.30
17795;DHT22;9021;50.882;4.326;2023-07-22T11:36:20;26.70;80.80
17795;DHT22;9021;50.882;4.326;2023-07-22T11:38:46;27.10;79.10
17795;DHT22;9021;50.882;4.326;2023-07-22T11:41:11;27.70;78.70
17795;DHT22;9021;50.882;4.326;2023-07-22T11:43:37;28.60;77.30
17795;DHT22;9021;50.882;4.326;2023-07-22T11:46:04;28.10;76.50
17795;DHT22;9021;50.882;4.326;2023-07-22T11:48:30;28.50;77.30
17795;DHT22;9021;50.882;4.326;2023-07-22T11:50:58;29.00;76.50
17795;DHT22;9021;50.882;4.326;2023-07-22T11:53:26;29.50;75.30
17795;DHT22;9021;50.882;4.326;2023-07-22T11:55:53;28.60;75.50
17795;DHT22;9021;50.882;4.326;2023-07-22T11:58:28;28.60;75.00
17795;DHT22;9021;50.882;4.326;2023-07-22T12:01:06;28.60;75.20
17795;DHT22;9021;50.882;4.326;2023-07-22T12:03:33;28.80;75.00
17795;DHT22;9021;50.882;4.326;2023-07-22T12:06:02;28.20;75.30
17795;DHT22;9021;50.882;4.326;2023-07-22T12:08:28;27.70;75.50
17795;DHT22;9021;50.882;4.326;2023-07-22T12:11:00;28.10;76.30
17795;DHT22;9021;50.882;4.326;2023-07-22T12:13:25;28.40;76.90
17795;DHT22;9021;50.882;4.326;2023-07-22T12:16:01;28.60;75.10
17795;DHT22;9021;50.882;4.326;2023-07-22T12:18:26;29.20;74.60
17795;DHT22;9021;50.882;4.326;2023-07-22T12:20:52;28.90;74.80
17795;DHT22;9021;50.882;4.326;2023-07-22T12:23:17;28.90;74.30
17795;DHT22;9021;50.882;4.326;2023-07-22T12:25:44;28.30;74.50
17795;DHT22;9021;50.882;4.326;2023-07-22T12:28:09;27.50;76.00
17795;DHT22;9021;50.882;4.326;2023-07-22T12:30:36;27.50;75.30
17795;DHT22;9021;50.882;4.326;2023-07-22T12:33:02;27.70;75.50
17795;DHT22;9021;50.882;4.326;2023-07-22T12:35:27;27.70;75.50
17795;DHT22;9021;50.882;4.326;2023-07-22T12:37:53;27.70;74.40
17795;DHT22;9021;50.882;4.326;2023-07-22T12:40:18;27.90;74.70
17795;DHT22;9021;50.882;4.326;2023-07-22T12:42:44;27.90;74.50
17795;DHT22;9021;50.882;4.326;2023-07-22T12:45:10;27.60;74.90
17795;DHT22;9021;50.882;4.326;2023-07-22T12:47:36;27.70;75.80
17795;DHT22;9021;50.882;4.326;2023-07-22T12:50:02;27.90;75.30
17795;DHT22;9021;50.882;4.326;2023-07-22T12:52:27;27.60;75.30
17795;DHT22;9021;50.882;4.326;2023-07-22T12:54:53;27.30;75.50
17795;DHT22;9021;50.882;4.326;2023-07-22T12:57:18;26.80;75.70
17795;DHT22;9021;50.882;4.326;2023-07-22T12:59:44;26.30;76.10
17795;DHT22;9021;50.882;4.326;2023-07-22T13:02:09;25.90;76.70
17795;DHT22;9021;50.882;4.326;2023-07-22T13:04:35;25.10;77.00
17795;DHT22;9021;50.882;4.326;2023-07-22T13:07:00;25.40;78.20
17795;DHT22;9021;50.882;4.326;2023-07-22T13:09:26;25.30;78.50
17795;DHT22;9021;50.882;4.326;2023-07-22T13:11:51;25.30;78.50
17795;DHT22;9021;50.882;4.326;2023-07-22T13:14:17;25.00;78.90
17795;DHT22;9021;50.882;4.326;2023-07-22T13:16:43;24.70;79.80
17795;DHT22;9021;50.882;4.326;2023-07-22T13:19:09;24.40;79.80
17795;DHT22;9021;50.882;4.326;2023-07-22T13:21:34;24.20;79.90
17795;DHT22;9021;50.882;4.326;2023-07-22T13:24:00;24.20;80.80
17795;DHT22;9021;50.882;4.326;2023-07-22T13:26:25;24.20;81.90
17795;DHT22;9021;50.882;4.326;2023-07-22T13:28:51;24.50;80.80
17795;DHT22;9021;50.882;4.326;2023-07-22T13:31:23;24.80;80.20
17795;DHT22;9021;50.882;4.326;2023-07-22T13:33:51;25.90;80.80
17795;DHT22;9021;50.882;4.326;2023-07-22T13:36:17;24.80;81.10
17795;DHT22;9021;50.882;4.326;2023-07-22T13:38:42;24.60;81.00
17795;DHT22;9021;50.882;4.326;2023-07-22T13:41:08;24.40;81.10
17795;DHT22;9021;50.882;4.326;2023-07-22T13:43:33;24.20;81.80
17795;DHT22;9021;50.882;4.326;2023-07-22T13:45:59;24.00;82.50
17795;DHT22;9021;50.882;4.326;2023-07-22T13:48:24;23.80;83.20
17795;DHT22;9021;50.882;4.326;2023-07-22T13:50:50;23.50;83.30
17795;DHT22;9021;50.882;4.326;2023-07-22T13:53:15;23.40;83.70
17795;DHT22;9021;50.882;4.326;2023-07-22T13:55:41;23.40;84.20
17795;DHT22;9021;50.882;4.326;2023-07-22T13:58:07;23.20;84.60
17795;DHT22;9021;50.882;4.326;2023-07-22T14:00:33;23.30;84.60
17795;DHT22;9021;50.882;4.326;2023-07-22T14:02:59;23.10;85.20
17795;DHT22;9021;50.882;4.326;2023-07-22T14:05:24;22.90;85.70
17795;DHT22;9021;50.882;4.326;2023-07-22T14:07:50;22.90;86.00
17795;DHT22;9021;50.882;4.326;2023-07-22T14:10:15;22.70;86.50
17795;DHT22;9021;50.882;4.326;2023-07-22T14:12:41;22.70;86.40
17795;DHT22;9021;50.882;4.326;2023-07-22T14:15:09;22.60;87.10
17795;DHT22;9021;50.882;4.326;2023-07-22T14:17:37;22.40;87.40
17795;DHT22;9021;50.882;4.326;2023-07-22T14:20:05;22.40;87.70
17795;DHT22;9021;50.882;4.326;2023-07-22T14:22:32;22.20;88.40
17795;DHT22;9021;50.882;4.326;2023-07-22T14:24:57;22.20;88.90
17795;DHT22;9021;50.882;4.326;2023-07-22T14:27:23;22.20;88.90
17795;DHT22;9021;50.882;4.326;2023-07-22T14:29:48;22.20;89.00
17795;DHT22;9021;50.882;4.326;2023-07-22T14:32:14;22.20;89.50
17795;DHT22;9021;50.882;4.326;2023-07-22T14:34:41;22.30;89.40
17795;DHT22;9021;50.882;4.326;2023-07-22T14:37:07;22.50;89.30
17795;DHT22;9021;50.882;4.326;2023-07-22T14:39:32;22.70;89.20
17795;DHT22;9021;50.882;4.326;2023-07-22T14:41:58;22.70;88.90
17795;DHT22;9021;50.882;4.326;2023-07-22T14:44:23;22.80;88.40
17795;DHT22;9021;50.882;4.326;2023-07-22T14:46:49;22.80;88.60
17795;DHT22;9021;50.882;4.326;2023-07-22T14:49:15;22.90;89.00
17795;DHT22;9021;50.882;4.326;2023-07-22T14:51:40;23.00;88.50
17795;DHT22;9021;50.882;4.326;2023-07-22T14:54:06;23.20;89.20
17795;DHT22;9021;50.882;4.326;2023-07-22T14:56:31;23.40;89.20
17795;DHT22;9021;50.882;4.326;2023-07-22T14:58:57;23.70;87.70
17795;DHT22;9021;50.882;4.326;2023-07-22T15:01:22;23.80;87.40
17795;DHT22;9021;50.882;4.326;2023-07-22T15:03:48;23.90;87.60
17795;DHT22;9021;50.882;4.326;2023-07-22T15:06:14;23.90;88.00
17795;DHT22;9021;50.882;4.326;2023-07-22T15:08:39;24.10;88.10
17795;DHT22;9021;50.882;4.326;2023-07-22T15:11:04;24.20;87.60
17795;DHT22;9021;50.882;4.326;2023-07-22T15:13:30;24.10;87.20
17795;DHT22;9021;50.882;4.326;2023-07-22T15:15:55;24.10;86.60
17795;DHT22;9021;50.882;4.326;2023-07-22T15:18:22;24.10;87.20
17795;DHT22;9021;50.882;4.326;2023-07-22T15:20:47;24.10;87.10
17795;DHT22;9021;50.882;4.326;2023-07-22T15:23:13;23.80;87.00
17795;DHT22;9021;50.882;4.326;2023-07-22T15:25:38;23.70;87.30
17795;DHT22;9021;50.882;4.326;2023-07-22T15:28:04;23.70;87.80
17795;DHT22;9021;50.882;4.326;2023-07-22T15:30:29;23.70;87.70
17795;DHT22;9021;50.882;4.326;2023-07-22T15:32:55;23.60;88.00
17795;DHT22;9021;50.882;4.326;2023-07-22T15:35:20;23.60;87.60
17795;DHT22;9021;50.882;4.326;2023-07-22T15:37:46;23.70;88.00
17795;DHT22;9021;50.882;4.326;2023-07-22T15:40:11;23.60;87.90
17795;DHT22;9021;50.882;4.326;2023-07-22T15:42:37;21.00;85.90
17795;DHT22;9021;50.882;4.326;2023-07-22T15:45:02;23.40;86.90
17795;DHT22;9021;50.882;4.326;2023-07-22T15:47:28;23.30;86.80
17795;DHT22;9021;50.882;4.326;2023-07-22T15:49:54;23.20;86.90
17795;DHT22;9021;50.882;4.326;2023-07-22T15:52:19;23.10;87.20